Time;durP1;ratioP1;P1;durP2;ratioP2;P2;SDS_P1;SDS_P2;PMS_P1;PMS_P2;Temp;Humidity;BMP_temperature;BMP_pressure;BME280_temperature;BME280_humidity;BME280_pressure;Samples;Min_cycle;Max_cycle;Signal;HPM_P1;HPM_P2
2021/05/17 03:03:13;;;;;;;9.60;9.10;;;11.30;99.90;;;;;;5260784;23;20515;-71
2021/05/17 03:05:41;;;;;;;9.63;9.33;;;11.40;99.90;;;;;;5004663;28;20460;-69
2021/05/17 03:08:09;;;;;;;9.73;9.33;;;11.30;99.90;;;;;;5014227;28;21019;-69
2021/05/17 03:10:38;;;;;;;9.43;8.87;;;11.30;99.90;;;;;;5014602;28;20452;-69
2021/05/17 03:13:08;;;;;;;8.97;8.77;;;11.30;99.90;;;;;;5014199;28;20456;-69
2021/05/17 03:15:35;;;;;;;8.17;7.87;;;11.30;99.90;;;;;;5014320;28;21050;-69
2021/05/17 03:18:02;;;;;;;9.00;8.70;;;11.30;99.90;;;;;;5014164;28;20480;-70
2021/05/17 03:20:29;;;;;;;8.90;8.60;;;11.30;99.90;;;;;;5013851;28;20452;-69
2021/05/17 03:22:58;;;;;;;8.57;8.13;;;11.30;99.90;;;;;;5013902;28;20503;-69
2021/05/17 03:25:26;;;;;;;9.20;8.90;;;11.30;99.90;;;;;;5013795;28;20461;-70
2021/05/17 03:27:52;;;;;;;9.93;9.43;;;11.40;99.90;;;;;;5013870;28;20484;-69
2021/05/17 03:30:20;;;;;;;9.73;9.30;;;11.30;99.90;;;;;;5013997;28;20460;-69
2021/05/17 03:32:46;;;;;;;9.90;9.60;;;11.30;99.90;;;;;;5013386;28;20981;-69
2021/05/17 03:35:13;;;;;;;9.53;9.00;;;11.20;99.90;;;;;;5013540;28;20461;-67
2021/05/17 03:37:40;;;;;;;10.03;9.63;;;11.10;99.90;;;;;;5013596;28;20539;-68
2021/05/17 03:40:08;;;;;;;9.50;9.20;;;11.10;99.90;;;;;;5013393;28;20456;-69
2021/05/17 03:42:35;;;;;;;10.53;9.70;;;11.00;99.90;;;;;;5013897;28;20460;-69
2021/05/17 03:45:02;;;;;;;8.87;8.67;;;11.00;99.90;;;;;;5013564;28;20441;-68
2021/05/17 03:47:28;;;;;;;10.30;10.00;;;11.00;99.90;;;;;;5013414;28;20450;-68
2021/05/17 03:49:54;;;;;;;8.53;8.23;;;11.00;99.90;;;;;;5013130;28;20947;-69
2021/05/17 03:52:21;;;;;;;8.83;8.53;;;11.00;99.90;;;;;;5013540;28;20480;-69
2021/05/17 03:54:48;;;;;;;9.03;8.73;;;11.10;99.90;;;;;;5013168;28;20467;-69
2021/05/17 03:57:14;;;;;;;9.40;8.73;;;11.10;99.90;;;;;;5012924;28;20489;-67
2021/05/17 03:59:42;;;;;;;10.80;10.30;;;11.10;99.90;;;;;;5012846;28;20957;-70
2021/05/17 04:02:09;;;;;;;8.70;8.40;;;11.10;99.90;;;;;;5018537;28;20585;-69
2021/05/17 04:04:39;;;;;;;8.43;8.13;;;11.10;99.90;;;;;;5032704;28;20943;-70
2021/05/17 04:07:16;;;;;;;8.03;7.83;;;11.10;99.90;;;;;;5032927;28;20459;-70
2021/05/17 04:12:34;;;;;;;9.07;8.77;;;11.30;99.90;;;;;;5032820;28;20421;-70
2021/05/17 04:15:01;;;;;;;9.43;9.13;;;11.30;99.90;;;;;;5032825;28;20466;-69
2021/05/17 04:17:27;;;;;;;8.63;8.33;;;11.30;99.90;;;;;;5032240;28;20769;-69
2021/05/17 04:19:53;;;;;;;8.60;8.20;;;11.30;99.90;;;;;;5032502;28;20918;-71
2021/05/17 04:22:19;;;;;;;8.93;8.63;;;11.30;99.90;;;;;;5032766;28;20458;-69
2021/05/17 04:24:45;;;;;;;9.57;8.93;;;11.30;99.90;;;;;;5032658;28;20457;-69
2021/05/17 04:27:12;;;;;;;9.23;8.93;;;11.30;99.90;;;;;;5032334;28;20456;-69
2021/05/17 04:29:39;;;;;;;8.93;8.20;;;11.40;99.90;;;;;;5032195;28;20946;-69
2021/05/17 04:32:06;;;;;;;9.00;8.70;;;11.40;99.90;;;;;;5032362;28;20454;-69
2021/05/17 04:34:32;;;;;;;9.40;9.10;;;11.50;99.90;;;;;;5032520;28;20452;-69
2021/05/17 04:36:58;;;;;;;14.80;9.03;;;11.60;99.90;;;;;;5032122;28;20491;-69
2021/05/17 04:39:24;;;;;;;10.10;9.70;;;11.60;99.90;;;;;;5032135;28;20449;-69
2021/05/17 04:41:50;;;;;;;8.00;7.70;;;11.90;99.90;;;;;;5032243;28;20453;-70
2021/05/17 04:44:16;;;;;;;9.50;9.00;;;12.30;99.90;;;;;;5032005;28;20456;-70
2021/05/17 04:46:43;;;;;;;9.40;9.07;;;12.30;99.90;;;;;;5031910;28;20452;-70
2021/05/17 04:49:10;;;;;;;8.67;8.37;;;12.30;99.90;;;;;;5031914;28;20827;-68
2021/05/17 04:51:36;;;;;;;9.80;9.40;;;12.20;99.90;;;;;;5030338;28;20848;-69
2021/05/17 04:54:02;;;;;;;10.43;9.93;;;12.40;99.90;;;;;;5030539;28;20456;-70
2021/05/17 04:56:29;;;;;;;9.77;9.37;;;12.80;99.90;;;;;;5031717;28;20457;-69
2021/05/17 04:58:55;;;;;;;10.50;9.80;;;13.20;99.90;;;;;;5032086;28;20457;-69
2021/05/17 05:01:21;;;;;;;9.00;8.67;;;13.70;99.90;;;;;;5029856;28;20856;-70
2021/05/17 05:03:48;;;;;;;10.90;10.43;;;14.00;99.90;;;;;;5031580;28;20531;-70
2021/05/17 05:06:14;;;;;;;10.23;9.80;;;13.70;99.90;;;;;;5032044;28;20468;-70
2021/05/17 05:08:40;;;;;;;9.23;8.83;;;13.50;99.90;;;;;;5031887;28;20444;-70
2021/05/17 05:11:07;;;;;;;10.33;9.90;;;13.00;99.90;;;;;;5032113;28;20853;-70
2021/05/17 05:13:33;;;;;;;10.30;9.80;;;12.90;99.90;;;;;;5031998;28;20472;-71
2021/05/17 05:15:59;;;;;;;10.40;9.80;;;12.90;99.90;;;;;;5031833;28;20472;-70
2021/05/17 05:18:25;;;;;;;10.60;10.00;;;13.10;99.90;;;;;;5031737;28;20489;-72
2021/05/17 05:20:52;;;;;;;15.40;11.07;;;13.50;99.90;;;;;;5031776;28;20453;-71
2021/05/17 05:23:21;;;;;;;11.00;10.10;;;14.10;99.90;;;;;;5032135;28;20449;-71
2021/05/17 05:28:37;;;;;;;9.70;9.40;;;14.50;99.90;;;;;;5031609;28;20495;-71
2021/05/17 05:31:09;;;;;;;10.43;9.93;;;15.00;99.90;;;;;;5031659;28;20448;-71
2021/05/17 05:33:35;;;;;;;9.30;9.00;;;15.30;99.90;;;;;;5031521;28;20522;-71
2021/05/17 05:36:03;;;;;;;9.37;8.90;;;15.60;99.90;;;;;;5031193;28;20445;-71
2021/05/17 05:38:29;;;;;;;8.90;8.60;;;16.40;99.90;;;;;;5031147;28;20488;-72
2021/05/17 05:40:56;;;;;;;8.60;8.30;;;17.20;98.80;;;;;;5031286;28;20449;-71
2021/05/17 05:43:22;;;;;;;10.27;9.83;;;17.50;97.90;;;;;;5030995;28;20453;-71
2021/05/17 05:45:50;;;;;;;9.73;9.40;;;17.20;98.20;;;;;;5030899;28;20449;-69
2021/05/17 05:48:17;;;;;;;9.40;9.10;;;17.20;97.80;;;;;;5030992;28;20507;-71
2021/05/17 05:50:45;;;;;;;9.60;9.30;;;16.80;97.60;;;;;;5030952;28;20444;-71
2021/05/17 05:53:12;;;;;;;9.50;9.20;;;16.80;98.20;;;;;;5030638;28;20457;-69
2021/05/17 05:55:39;;;;;;;9.53;9.23;;;17.10;97.00;;;;;;5030919;28;20457;-69
2021/05/17 05:58:05;;;;;;;8.13;7.90;;;17.30;96.60;;;;;;5031148;28;20496;-69
2021/05/17 06:00:31;;;;;;;9.50;9.20;;;16.80;96.90;;;;;;5031013;28;20473;-70
2021/05/17 06:02:58;;;;;;;8.90;8.70;;;16.30;98.30;;;;;;5030490;28;21045;-69
2021/05/17 06:05:24;;;;;;;8.73;8.43;;;16.00;98.80;;;;;;5030702;28;20506;-69
2021/05/17 06:07:51;;;;;;;9.13;8.63;;;15.90;99.70;;;;;;5031109;28;20453;-69
2021/05/17 06:10:18;;;;;;;9.60;9.30;;;15.70;99.70;;;;;;5030924;28;20519;-69
2021/05/17 06:12:47;;;;;;;10.30;9.80;;;15.20;99.90;;;;;;5030720;28;20456;-70
2021/05/17 06:15:15;;;;;;;9.43;9.03;;;15.30;99.90;;;;;;5030550;28;20460;-70
2021/05/17 06:17:42;;;;;;;9.37;9.07;;;15.40;99.90;;;;;;5030378;28;20870;-70
2021/05/17 06:20:09;;;;;;;9.60;9.10;;;15.40;99.90;;;;;;5030653;28;20452;-71
2021/05/17 06:22:37;;;;;;;10.50;9.90;;;14.90;99.90;;;;;;5030866;28;20453;-68
2021/05/17 06:25:05;;;;;;;9.00;8.70;;;15.00;99.90;;;;;;5030438;28;20950;-71
2021/05/17 06:27:33;;;;;;;10.27;9.97;;;14.50;99.90;;;;;;5030522;28;20449;-71
2021/05/17 06:29:59;;;;;;;10.00;9.70;;;14.30;99.90;;;;;;5030348;28;20863;-70
2021/05/17 06:32:27;;;;;;;9.60;9.20;;;14.50;99.90;;;;;;5029959;28;20452;-71
2021/05/17 06:34:54;;;;;;;9.73;9.43;;;14.50;99.90;;;;;;5030149;28;20859;-71
2021/05/17 06:37:20;;;;;;;8.80;8.60;;;14.40;99.90;;;;;;5029762;28;20489;-71
2021/05/17 06:39:46;;;;;;;8.93;8.70;;;14.50;99.90;;;;;;5029892;28;20452;-69
2021/05/17 06:42:14;;;;;;;7.80;7.60;;;14.80;99.90;;;;;;5030343;28;20572;-71
2021/05/17 06:44:41;;;;;;;9.80;9.40;;;15.10;99.90;;;;;;5030378;28;20973;-71
2021/05/17 06:47:10;;;;;;;8.60;8.30;;;15.30;99.90;;;;;;5030417;28;20445;-70
2021/05/17 06:49:36;;;;;;;8.73;8.43;;;15.10;99.90;;;;;;5030604;28;20452;-69
2021/05/17 06:52:03;;;;;;;9.93;9.53;;;15.20;99.90;;;;;;5030555;28;20456;-71
2021/05/17 06:54:30;;;;;;;9.00;8.70;;;15.70;99.90;;;;;;5030168;28;20441;-70
2021/05/17 06:57:03;;;;;;;8.97;8.67;;;15.90;99.50;;;;;;5030035;28;20489;-71
2021/05/17 06:59:32;;;;;;;9.40;9.10;;;16.20;99.60;;;;;;5030183;28;21024;-71
2021/05/17 07:02:00;;;;;;;9.00;8.70;;;16.60;98.60;;;;;;5029803;28;21423;-71
2021/05/17 07:04:28;;;;;;;9.10;8.90;;;16.30;98.30;;;;;;5029941;28;20449;-71
2021/05/17 07:06:58;;;;;;;9.40;9.10;;;16.30;98.80;;;;;;5030120;28;20446;-71
2021/05/17 07:12:11;;;;;;;8.93;8.63;;;16.60;98.20;;;;;;5030106;28;21022;-71
2021/05/17 07:14:37;;;;;;;9.00;8.80;;;16.30;98.00;;;;;;5030117;28;20460;-71
2021/05/17 07:17:06;;;;;;;9.67;9.30;;;16.30;98.30;;;;;;5030110;28;20824;-71
2021/05/17 07:19:32;;;;;;;9.33;8.90;;;16.20;98.50;;;;;;5030088;28;20552;-71
2021/05/17 07:24:42;;;;;;;9.50;9.20;;;16.00;99.30;;;;;;5030092;28;20512;-71
2021/05/17 07:27:09;;;;;;;9.43;9.13;;;16.60;98.60;;;;;;5029903;28;20457;-71
2021/05/17 07:29:37;;;;;;;9.80;9.40;;;16.90;97.90;;;;;;5030116;28;20453;-71
2021/05/17 07:32:06;;;;;;;9.43;9.13;;;16.80;97.70;;;;;;5030132;28;20548;-71
2021/05/17 07:34:34;;;;;;;9.70;9.40;;;17.40;97.80;;;;;;5030015;28;20460;-70
2021/05/17 07:37:01;;;;;;;9.60;9.30;;;18.00;96.70;;;;;;5029717;28;20757;-70
2021/05/17 07:39:27;;;;;;;9.70;9.40;;;18.20;95.60;;;;;;5029911;28;20480;-71
2021/05/17 07:41:53;;;;;;;10.17;9.77;;;18.60;95.70;;;;;;5029723;28;20507;-71
2021/05/17 07:44:20;;;;;;;10.90;10.30;;;19.60;93.70;;;;;;5030014;28;20543;-71
2021/05/17 07:46:46;;;;;;;9.70;9.40;;;20.20;93.20;;;;;;5029686;28;20510;-72
2021/05/17 07:49:14;;;;;;;9.30;9.10;;;20.20;91.40;;;;;;5030473;28;20476;-72
2021/05/17 07:51:43;;;;;;;9.70;9.30;;;20.20;91.40;;;;;;5033314;28;20551;-72
2021/05/17 07:54:10;;;;;;;9.87;9.57;;;20.20;91.00;;;;;;5033419;28;20490;-71
2021/05/17 07:56:36;;;;;;;9.57;9.27;;;19.80;91.40;;;;;;5033308;28;20449;-71
2021/05/17 07:59:03;;;;;;;10.20;9.80;;;19.60;91.50;;;;;;5032996;28;20493;-71
2021/05/17 08:01:29;;;;;;;10.07;9.57;;;19.50;91.50;;;;;;5033109;28;20468;-71
2021/05/17 08:03:55;;;;;;;9.63;9.33;;;19.20;91.30;;;;;;5032836;28;20484;-72
2021/05/17 08:06:24;;;;;;;9.53;9.20;;;19.40;91.40;;;;;;5033215;28;20803;-72
2021/05/17 08:08:50;;;;;;;9.20;8.90;;;19.70;90.10;;;;;;5032981;28;20453;-71
2021/05/17 08:11:17;;;;;;;9.70;9.40;;;19.30;90.60;;;;;;5032993;28;20818;-71
2021/05/17 08:13:43;;;;;;;9.20;8.80;;;19.20;90.30;;;;;;5032808;28;20835;-71
2021/05/17 08:16:10;;;;;;;9.00;8.70;;;19.00;90.20;;;;;;5032874;28;20460;-71
2021/05/17 08:18:37;;;;;;;9.10;8.80;;;18.60;90.90;;;;;;5032890;28;20575;-70
2021/05/17 08:21:04;;;;;;;10.50;9.87;;;18.50;91.00;;;;;;5033112;28;20574;-69
2021/05/17 08:23:31;;;;;;;8.60;8.30;;;18.40;91.60;;;;;;5032892;28;20454;-69
2021/05/17 08:25:58;;;;;;;8.83;8.53;;;18.20;91.90;;;;;;5032771;28;20483;-69
2021/05/17 08:28:24;;;;;;;9.10;8.80;;;19.20;90.80;;;;;;5032768;28;20449;-70
2021/05/17 08:30:55;;;;;;;10.00;9.70;;;20.00;90.00;;;;;;5032676;28;20954;-70
2021/05/17 08:33:22;;;;;;;9.70;9.40;;;20.80;86.90;;;;;;5032837;28;20503;-70
2021/05/17 08:35:48;;;;;;;9.33;9.03;;;20.90;85.30;;;;;;5032884;28;20449;-70
2021/05/17 08:38:15;;;;;;;9.43;9.13;;;20.70;84.40;;;;;;5032363;28;20853;-70
2021/05/17 08:40:46;;;;;;;9.70;9.40;;;20.40;84.40;;;;;;5032331;28;20518;-70
2021/05/17 08:43:12;;;;;;;9.47;9.17;;;19.60;85.20;;;;;;5032496;28;20959;-70
2021/05/17 08:45:39;;;;;;;9.37;9.07;;;19.00;88.60;;;;;;5032396;28;20479;-70
2021/05/17 08:48:06;;;;;;;9.37;9.07;;;18.60;89.40;;;;;;5032495;28;20476;-71
2021/05/17 08:50:33;;;;;;;8.90;8.60;;;19.00;89.60;;;;;;5032457;28;20885;-70
2021/05/17 08:53:00;;;;;;;9.73;9.40;;;19.50;87.60;;;;;;5032145;28;20448;-70
2021/05/17 08:55:26;;;;;;;10.10;9.70;;;20.50;85.10;;;;;;5032210;28;20456;-71
2021/05/17 08:57:53;;;;;;;9.30;8.90;;;21.40;80.70;;;;;;5032314;28;20484;-71
2021/05/17 09:00:21;;;;;;;9.70;9.40;;;21.90;78.10;;;;;;5031839;28;20469;-70
2021/05/17 09:02:48;;;;;;;8.87;8.67;;;21.80;77.20;;;;;;5031393;28;20476;-70
2021/05/17 09:05:17;;;;;;;9.90;9.60;;;21.10;79.10;;;;;;5031705;28;20445;-71
2021/05/17 09:07:45;;;;;;;9.50;9.20;;;21.00;80.90;;;;;;5031774;28;20441;-70
2021/05/17 09:10:17;;;;;;;9.63;9.33;;;20.70;81.80;;;;;;5031683;28;20445;-71
2021/05/17 09:13:04;;;;;;;9.70;9.40;;;20.80;81.00;;;;;;5031418;28;20484;-70
2021/05/17 09:15:33;;;;;;;9.20;8.90;;;20.30;82.20;;;;;;5031540;28;20927;-71
2021/05/17 09:18:03;;;;;;;9.67;9.37;;;20.90;83.60;;;;;;5031460;28;20492;-71
2021/05/17 09:20:37;;;;;;;10.40;9.70;;;22.00;81.80;;;;;;5031734;28;20453;-71
2021/05/17 09:23:12;;;;;;;10.77;10.37;;;23.20;76.30;;;;;;5031535;28;20552;-71
2021/05/17 09:25:39;;;;;;;10.20;9.73;;;23.50;75.60;;;;;;5031460;28;20449;-71
2021/05/17 09:28:10;;;;;;;9.70;9.40;;;22.90;76.20;;;;;;5031439;28;20449;-71
2021/05/17 09:30:50;;;;;;;9.80;9.47;;;21.50;77.60;;;;;;5031292;28;20510;-71
2021/05/17 09:33:17;;;;;;;9.67;9.37;;;20.90;83.40;;;;;;5031466;28;20571;-71
2021/05/17 09:35:45;;;;;;;9.30;9.00;;;20.70;87.00;;;;;;5031460;28;20448;-70
2021/05/17 09:38:21;;;;;;;9.90;9.50;;;20.70;84.90;;;;;;5031307;28;20505;-70
2021/05/17 09:40:59;;;;;;;9.70;9.40;;;21.50;82.30;;;;;;5031563;28;20456;-71
2021/05/17 09:43:27;;;;;;;10.83;10.17;;;22.30;79.60;;;;;;5031297;28;20491;-71
2021/05/17 09:45:53;;;;;;;9.70;9.30;;;22.40;77.80;;;;;;5031104;28;20812;-71
2021/05/17 09:48:21;;;;;;;9.90;9.60;;;22.80;76.10;;;;;;5031340;28;20511;-71
2021/05/17 09:50:55;;;;;;;10.10;9.60;;;22.70;74.60;;;;;;5030979;28;20452;-71
2021/05/17 09:53:22;;;;;;;10.20;9.90;;;22.70;76.00;;;;;;5031139;28;20464;-71
2021/05/17 09:55:49;;;;;;;10.10;9.70;;;22.10;77.50;;;;;;5031252;28;20458;-71
2021/05/17 09:58:27;;;;;;;9.53;9.23;;;21.10;80.10;;;;;;5030915;28;20485;-70
2021/05/17 10:01:08;;;;;;;9.43;9.13;;;19.90;84.50;;;;;;5030958;28;20477;-70
2021/05/17 10:03:37;;;;;;;10.60;10.10;;;19.00;89.60;;;;;;5030974;28;20488;-70
2021/05/17 10:06:04;;;;;;;9.50;9.20;;;18.80;90.90;;;;;;5031069;28;20449;-70
2021/05/17 10:08:30;;;;;;;9.43;9.13;;;18.40;91.20;;;;;;5030658;28;20453;-71
2021/05/17 10:10:57;;;;;;;9.90;9.40;;;18.30;91.20;;;;;;5030562;28;20456;-70
2021/05/17 10:13:24;;;;;;;9.43;9.13;;;18.30;91.50;;;;;;5030490;28;20540;-70
2021/05/17 10:15:52;;;;;;;8.40;8.20;;;18.20;91.90;;;;;;5030598;28;20586;-70
2021/05/17 10:18:19;;;;;;;9.33;8.83;;;18.80;91.90;;;;;;5030550;28;20516;-70
2021/05/17 10:20:45;;;;;;;9.23;9.00;;;19.10;91.10;;;;;;5030373;28;20460;-70
2021/05/17 10:23:13;;;;;;;9.43;9.03;;;19.00;90.30;;;;;;5030348;28;20448;-70
2021/05/17 10:25:41;;;;;;;8.97;8.67;;;18.90;90.50;;;;;;5030216;28;20491;-70
2021/05/17 10:28:10;;;;;;;9.40;9.10;;;18.90;90.60;;;;;;5030315;28;20449;-70
2021/05/17 10:30:37;;;;;;;9.23;8.90;;;19.10;90.30;;;;;;5030506;28;20455;-69
2021/05/17 10:33:06;;;;;;;9.00;8.70;;;19.20;90.80;;;;;;5030717;28;20453;-69
2021/05/17 10:35:35;;;;;;;9.50;9.20;;;18.90;91.80;;;;;;5030457;28;20814;-69
2021/05/17 10:38:18;;;;;;;9.53;9.20;;;18.40;93.00;;;;;;5030382;28;20489;-69
2021/05/17 10:40:47;;;;;;;8.93;8.63;;;18.00;93.60;;;;;;5030261;28;20445;-69
2021/05/17 10:43:22;;;;;;;9.40;9.10;;;17.40;94.80;;;;;;5030352;28;20800;-68
2021/05/17 10:48:35;;;;;;;28.00;26.90;;;16.50;99.90;;;;;;5030493;28;20474;-74
2021/05/17 10:51:17;;;;;;;28.37;27.17;;;15.50;99.90;;;;;;5029922;28;20469;-74
2021/05/17 10:53:50;;;;;;;29.97;28.87;;;14.90;99.90;;;;;;5030036;28;20718;-74
2021/05/17 10:56:19;;;;;;;27.27;26.27;;;14.40;99.90;;;;;;5030233;28;20952;-75
2021/05/17 11:01:57;;;;;;;27.53;26.47;;;15.10;99.90;;;;;;5030105;28;20803;-74
2021/05/17 11:04:29;;;;;;;21.03;20.23;;;15.70;99.90;;;;;;5030250;28;20453;-73
2021/05/17 11:07:16;;;;;;;15.70;15.10;;;15.70;99.90;;;;;;5030079;28;21000;-73
2021/05/17 11:09:49;;;;;;;13.70;13.00;;;16.20;99.90;;;;;;5029884;28;20441;-74
2021/05/17 11:12:39;;;;;;;13.17;12.40;;;16.90;99.90;;;;;;5030183;28;20449;-74
2021/05/17 11:15:08;;;;;;;11.17;10.77;;;18.40;99.90;;;;;;5030269;28;20445;-74
2021/05/17 11:18:11;;;;;;;12.87;12.37;;;19.20;99.90;;;;;;5030297;28;20488;-74
2021/05/17 11:20:50;;;;;;;13.10;12.60;;;20.50;99.90;;;;;;4997678;28;20957;-73
2021/05/17 11:23:18;;;;;;;13.37;12.90;;;21.50;99.90;;;;;;5030303;28;20449;-71
2021/05/17 11:25:47;;;;;;;13.00;12.37;;;20.30;99.90;;;;;;5033310;28;20503;-72
2021/05/17 11:28:14;;;;;;;13.03;12.53;;;20.60;98.70;;;;;;5033519;28;20453;-69
2021/05/17 11:30:43;;;;;;;12.27;11.80;;;20.70;95.10;;;;;;5033580;28;20444;-70
2021/05/17 11:33:17;;;;;;;11.50;11.20;;;20.20;96.70;;;;;;5033607;28;20953;-71
2021/05/17 11:36:00;;;;;;;16.10;15.50;;;19.00;99.50;;;;;;5033847;28;20444;-72
2021/05/17 11:38:27;;;;;;;14.70;14.03;;;18.10;99.90;;;;;;5033583;28;20570;-72
2021/05/17 11:40:53;;;;;;;13.67;13.17;;;17.60;99.90;;;;;;5033696;28;20459;-72
2021/05/17 11:43:21;;;;;;;13.97;13.47;;;17.40;99.90;;;;;;5033876;28;20459;-70
2021/05/17 11:45:48;;;;;;;13.00;12.60;;;17.20;99.90;;;;;;5033669;28;20852;-73
2021/05/17 11:48:14;;;;;;;13.87;13.37;;;16.80;99.90;;;;;;5033522;28;20455;-71
2021/05/17 11:50:40;;;;;;;15.10;14.30;;;16.40;99.90;;;;;;5033426;28;20821;-73
2021/05/17 11:53:13;;;;;;;32.70;31.30;;;16.10;99.90;;;;;;5033675;28;20452;-76
2021/05/17 11:55:48;;;;;;;32.50;31.30;;;15.50;99.90;;;;;;5033305;28;20463;-79
2021/05/17 11:58:22;;;;;;;31.67;30.57;;;14.90;99.90;;;;;;5033313;28;20578;-77
2021/05/17 12:00:48;;;;;;;22.87;21.97;;;15.40;99.90;;;;;;5033316;28;21164;-73
2021/05/17 12:03:15;;;;;;;16.40;15.70;;;16.80;99.90;;;;;;5032812;28;20488;-73
2021/05/17 12:05:41;;;;;;;14.40;13.80;;;17.60;99.90;;;;;;5032949;28;20637;-74
2021/05/17 12:08:10;;;;;;;14.00;13.40;;;18.90;99.90;;;;;;5033125;28;20661;-73
2021/05/17 12:10:38;;;;;;;14.00;13.40;;;20.10;99.90;;;;;;5032975;28;20523;-74
2021/05/17 12:13:08;;;;;;;13.40;13.00;;;21.40;99.90;;;;;;5032929;28;20461;-74
2021/05/17 12:15:35;;;;;;;13.50;13.10;;;21.60;99.40;;;;;;5032984;28;20472;-74
2021/05/17 12:18:08;;;;;;;14.50;13.90;;;21.50;99.90;;;;;;5032795;28;20487;-73
2021/05/17 12:20:34;;;;;;;12.40;12.00;;;20.60;95.90;;;;;;5033195;28;20548;-73
2021/05/17 12:23:01;;;;;;;12.30;11.90;;;19.30;97.80;;;;;;5032946;28;20548;-73
2021/05/17 12:25:27;;;;;;;11.70;11.40;;;18.80;99.50;;;;;;5032812;28;20461;-72
2021/05/17 12:27:54;;;;;;;12.10;11.70;;;18.50;99.90;;;;;;5032732;28;20456;-72
2021/05/17 12:30:23;;;;;;;11.83;11.43;;;18.60;99.90;;;;;;5032856;28;20535;-72
2021/05/17 12:32:51;;;;;;;11.83;11.43;;;19.00;97.40;;;;;;5032919;28;20452;-71
2021/05/17 12:35:25;;;;;;;11.77;11.37;;;19.10;96.60;;;;;;5031861;28;20536;-69
2021/05/17 12:37:53;;;;;;;11.80;11.40;;;19.80;97.20;;;;;;5032070;28;20511;-69
2021/05/17 12:40:31;;;;;;;12.07;11.77;;;21.10;96.20;;;;;;5032660;28;20452;-69
2021/05/17 12:43:10;;;;;;;11.90;11.50;;;21.50;92.00;;;;;;5032393;28;20460;-70
2021/05/17 12:45:39;;;;;;;11.20;10.90;;;21.90;91.00;;;;;;5032544;28;20449;-69
2021/05/17 12:48:20;;;;;;;10.00;9.70;;;22.20;91.10;;;;;;5032560;28;20444;-68
2021/05/17 12:50:48;;;;;;;11.10;10.80;;;23.30;86.50;;;;;;5032398;28;20448;-71
2021/05/17 12:53:18;;;;;;;11.37;11.07;;;23.00;88.50;;;;;;5032241;28;20456;-71
2021/05/17 12:55:45;;;;;;;11.40;11.00;;;22.20;86.90;;;;;;5032196;28;20463;-70
2021/05/17 12:58:14;;;;;;;10.90;10.30;;;21.10;86.00;;;;;;5031948;28;21065;-70
2021/05/17 13:00:47;;;;;;;11.10;10.70;;;20.70;87.40;;;;;;5031948;28;20468;-70
2021/05/17 13:03:15;;;;;;;10.33;10.03;;;20.70;90.40;;;;;;5032056;28;20576;-69
2021/05/17 13:06:03;;;;;;;10.20;9.90;;;20.90;88.80;;;;;;5032034;28;20449;-69
2021/05/17 13:08:45;;;;;;;10.17;9.77;;;21.30;85.40;;;;;;5031928;28;20480;-70
2021/05/17 13:11:13;;;;;;;9.97;9.60;;;21.40;84.80;;;;;;5031959;28;20693;-70
2021/05/17 13:13:59;;;;;;;10.27;9.97;;;20.90;83.70;;;;;;5031736;28;20457;-70
2021/05/17 13:16:32;;;;;;;9.30;9.03;;;20.20;86.30;;;;;;5031826;28;20531;-70
2021/05/17 13:30:43;;;;;;;10.50;10.20;;;22.00;78.70;;;;;;5031621;28;20429;-70
2021/05/17 13:33:18;;;;;;;10.77;10.37;;;21.50;79.90;;;;;;5031197;28;20457;-69
2021/05/17 13:35:44;;;;;;;9.60;9.30;;;21.30;81.30;;;;;;5031235;28;20507;-69
2021/05/17 13:38:10;;;;;;;9.43;9.13;;;20.70;83.40;;;;;;5031365;28;20485;-69
2021/05/17 13:40:37;;;;;;;9.60;9.30;;;19.80;82.50;;;;;;5031585;28;20464;-70
2021/05/17 13:43:03;;;;;;;9.23;8.93;;;20.00;84.20;;;;;;5031282;28;20791;-70
2021/05/17 13:45:29;;;;;;;10.50;10.10;;;20.40;83.60;;;;;;5031045;28;20501;-69
2021/05/17 13:47:56;;;;;;;9.60;9.30;;;20.30;82.60;;;;;;5030730;28;20939;-70
2021/05/17 13:50:22;;;;;;;9.50;9.20;;;20.00;84.60;;;;;;5031360;28;20453;-69
2021/05/17 13:52:48;;;;;;;9.80;9.50;;;19.60;85.50;;;;;;5031200;28;20441;-69
2021/05/17 13:55:15;;;;;;;9.50;9.20;;;19.00;87.80;;;;;;5031014;28;20460;-69
2021/05/17 13:58:11;;;;;;;9.77;9.47;;;19.10;90.80;;;;;;5031102;28;20905;-69
2021/05/17 14:00:37;;;;;;;9.50;9.20;;;19.20;90.00;;;;;;5027868;28;20507;-70
2021/05/17 14:03:05;;;;;;;10.03;9.73;;;19.50;88.50;;;;;;5031517;28;20550;-71
2021/05/17 14:05:31;;;;;;;10.67;10.07;;;20.30;88.60;;;;;;5031175;28;20452;-70
2021/05/17 14:07:57;;;;;;;10.00;9.70;;;21.40;84.40;;;;;;5031569;28;20444;-68
2021/05/17 14:10:24;;;;;;;9.10;8.90;;;21.40;83.50;;;;;;5031243;28;20449;-69
2021/05/17 14:12:50;;;;;;;11.03;10.63;;;21.60;81.90;;;;;;5031265;28;20441;-69
2021/05/17 14:15:17;;;;;;;9.80;9.50;;;21.70;82.70;;;;;;5030719;28;20476;-69
2021/05/17 14:17:43;;;;;;;10.17;9.77;;;21.30;80.40;;;;;;5031159;28;20489;-69
2021/05/17 14:20:13;;;;;;;9.83;9.50;;;20.70;82.20;;;;;;5030991;28;20449;-68
2021/05/17 14:22:40;;;;;;;10.00;9.70;;;20.10;82.10;;;;;;5030986;28;20464;-68
2021/05/17 14:25:09;;;;;;;9.90;9.57;;;19.60;83.50;;;;;;5030683;28;20452;-68
2021/05/17 14:27:35;;;;;;;10.13;9.83;;;18.90;84.90;;;;;;5030837;28;20499;-69
2021/05/17 14:30:02;;;;;;;9.67;9.37;;;18.50;86.50;;;;;;5030793;28;20981;-68
2021/05/17 14:32:28;;;;;;;9.27;8.97;;;18.50;87.50;;;;;;5030870;28;20917;-68
2021/05/17 14:34:55;;;;;;;8.90;8.63;;;18.10;89.30;;;;;;5031125;28;20444;-68
2021/05/17 14:37:22;;;;;;;9.50;9.10;;;17.70;90.80;;;;;;5030655;28;20527;-68
2021/05/17 14:39:48;;;;;;;9.30;9.00;;;17.10;91.90;;;;;;5030756;28;20453;-69
2021/05/17 14:42:14;;;;;;;8.40;8.20;;;16.40;93.80;;;;;;5030512;28;20453;-68
2021/05/17 14:44:41;;;;;;;9.57;9.20;;;16.00;95.80;;;;;;5030715;28;20484;-68
2021/05/17 14:47:07;;;;;;;13.97;13.47;;;15.60;99.30;;;;;;5030560;28;20452;-69
2021/05/17 14:49:35;;;;;;;14.70;14.13;;;14.90;99.90;;;;;;5030711;28;20453;-72
2021/05/17 14:52:01;;;;;;;19.70;19.00;;;14.10;99.90;;;;;;5030497;28;20455;-72
2021/05/17 14:54:28;;;;;;;18.97;18.37;;;13.70;99.90;;;;;;5030502;28;20603;-72
2021/05/17 14:56:55;;;;;;;18.20;17.60;;;13.50;99.90;;;;;;5030522;28;20455;-72
2021/05/17 14:59:32;;;;;;;17.50;16.90;;;13.40;99.90;;;;;;5031674;28;20511;-72
2021/05/17 15:01:59;;;;;;;15.23;14.67;;;13.60;99.90;;;;;;5034810;28;20496;-73
2021/05/17 15:04:25;;;;;;;14.80;14.30;;;14.00;99.90;;;;;;5034960;28;20449;-72
2021/05/17 15:06:51;;;;;;;13.60;13.20;;;14.40;99.90;;;;;;5034987;28;20461;-72
2021/05/17 15:09:17;;;;;;;13.40;12.90;;;14.90;99.90;;;;;;5034985;28;20576;-71
2021/05/17 15:11:45;;;;;;;12.77;12.37;;;15.30;99.90;;;;;;5034859;28;20445;-72
2021/05/17 15:14:11;;;;;;;13.30;12.90;;;15.70;99.90;;;;;;5034752;28;20460;-72
2021/05/17 15:16:38;;;;;;;13.53;12.83;;;16.00;99.90;;;;;;5034808;28;20499;-71
2021/05/17 15:19:06;;;;;;;13.80;13.30;;;15.90;99.90;;;;;;5034821;28;20519;-71
2021/05/17 15:21:33;;;;;;;13.47;13.07;;;15.90;99.90;;;;;;5034648;28;20449;-71
2021/05/17 15:23:59;;;;;;;13.50;13.10;;;15.90;99.90;;;;;;5034606;28;20453;-71
2021/05/17 15:26:25;;;;;;;12.60;12.10;;;15.70;99.90;;;;;;5034301;28;20459;-69
2021/05/17 15:28:54;;;;;;;13.03;12.60;;;15.90;99.90;;;;;;5034453;28;20487;-69
2021/05/17 15:31:20;;;;;;;11.50;11.20;;;16.10;99.90;;;;;;5034521;28;20495;-69
2021/05/17 15:33:46;;;;;;;11.43;11.07;;;16.00;99.90;;;;;;5034465;28;20444;-71
2021/05/17 15:36:13;;;;;;;9.90;9.60;;;16.20;99.90;;;;;;5034525;28;20638;-71
2021/05/17 15:38:39;;;;;;;11.00;10.60;;;16.10;99.90;;;;;;5034295;28;20484;-70
2021/05/17 15:41:05;;;;;;;10.93;10.53;;;16.30;99.90;;;;;;5034339;28;20445;-70
2021/05/17 15:43:31;;;;;;;10.27;9.97;;;16.60;99.90;;;;;;5034175;28;20839;-70
2021/05/17 15:45:59;;;;;;;10.03;9.73;;;16.60;99.90;;;;;;5034095;28;20452;-69
2021/05/17 15:48:27;;;;;;;9.67;9.37;;;17.00;99.90;;;;;;5034072;28;20467;-69
2021/05/17 15:50:54;;;;;;;10.20;9.90;;;17.20;99.90;;;;;;5033910;28;20881;-69
2021/05/17 15:53:20;;;;;;;9.53;9.23;;;17.20;99.90;;;;;;5034143;28;20511;-68
2021/05/17 15:55:46;;;;;;;9.57;9.20;;;17.20;99.90;;;;;;5033684;28;20456;-69
2021/05/17 15:58:12;;;;;;;9.93;9.47;;;17.20;99.90;;;;;;5033705;28;20484;-69
2021/05/17 16:00:39;;;;;;;9.70;9.40;;;17.10;99.40;;;;;;5026038;28;20490;-69
2021/05/17 16:03:06;;;;;;;10.57;10.07;;;16.80;99.00;;;;;;5032643;28;20485;-69
2021/05/17 16:05:32;;;;;;;9.50;9.20;;;16.70;99.20;;;;;;5033953;28;20804;-69
2021/05/17 16:08:00;;;;;;;9.23;8.93;;;16.50;99.70;;;;;;5033215;28;20487;-69
2021/05/17 16:10:32;;;;;;;9.93;9.63;;;16.70;99.90;;;;;;5033123;28;20484;-68
2021/05/17 16:13:02;;;;;;;9.40;9.10;;;16.80;99.10;;;;;;5033539;28;20690;-68
2021/05/17 16:15:35;;;;;;;8.40;8.20;;;16.70;99.80;;;;;;5033521;28;20954;-69
2021/05/17 16:18:14;;;;;;;8.67;8.47;;;16.70;99.90;;;;;;5033503;28;20848;-69